Terminal Aerodrome Forecast
Issued by NWS

Home | Current Version | Previous Version | Text Only | Print | Product List | Glossary On
Versions: 1 2 3 4 5 6 7 8 9 10 11 12 13 14 15 16 17 18 19
000
FTUS41 KBGM 251224 AAA
TAFITH
TAF AMD
KITH 251224Z 2512/2612 09012KT P6SM SCT020 OVC050 WS020/11045KT
      TEMPO 2512/2515 -RA OVC022
     FM251500 12012KT 4SM -RA BR OVC015 WS020/11045KT
     FM251900 13009KT P6SM OVC012 WS020/11045KT
     FM260500 VRB03KT 3SM BR OVC007=

USA.gov is the U.S. government's official web portal to all federal, state and local government web resources and services.